Time;durP1;ratioP1;P1;durP2;ratioP2;P2;SDS_P1;SDS_P2;PMS_P1;PMS_P2;Temp;Humidity;BMP_temperature;BMP_pressure;BME280_temperature;BME280_humidity;BME280_pressure;Samples;Min_cycle;Max_cycle;Signal;HPM_P1;HPM_P2
2023/03/11 00:00:20;;;;;;;13.27;2.17;;;;;;;2.26;81.52;100124.69;4973650;28;20113;-62
2023/03/11 00:02:46;;;;;;;8.02;1.63;;;;;;;2.30;81.46;100126.47;4975387;28;20026;-62
2023/03/11 00:05:23;;;;;;;10.25;2.00;;;;;;;2.33;80.78;100134.16;4973309;28;20066;-63
2023/03/11 00:07:49;;;;;;;12.23;2.05;;;;;;;2.33;80.80;100138.41;4980706;28;20137;-62
2023/03/11 00:10:24;;;;;;;7.40;1.73;;;;;;;2.31;81.66;100157.94;4985482;28;20054;-62
2023/03/11 00:12:50;;;;;;;15.05;2.40;;;;;;;2.30;81.18;100139.22;4975456;28;20042;-62
2023/03/11 00:15:15;;;;;;;7.70;3.25;;;;;;;2.35;79.96;100145.22;4970297;28;20069;-62
2023/03/11 00:17:41;;;;;;;9.65;1.80;;;;;;;2.36;80.22;100149.50;4975466;28;20038;-62
2023/03/11 00:20:10;;;;;;;10.13;2.53;;;;;;;2.38;79.78;100150.38;4974461;28;20030;-62
2023/03/11 00:22:36;;;;;;;8.68;1.80;;;;;;;2.39;79.60;100139.34;4993795;28;20586;-63
2023/03/11 00:25:01;;;;;;;13.98;2.00;;;;;;;2.39;80.13;100158.88;4977558;28;20046;-63
2023/03/11 00:27:26;;;;;;;9.23;1.75;;;;;;;2.39;79.67;100159.75;4967133;28;20061;-62
2023/03/11 00:29:52;;;;;;;8.63;2.05;;;;;;;2.39;79.56;100156.34;4972941;28;20392;-62
2023/03/11 00:32:17;;;;;;;12.75;1.90;;;;;;;2.37;80.11;100165.63;4971312;28;20035;-63
2023/03/11 00:34:43;;;;;;;11.57;2.05;;;;;;;2.35;79.67;100168.19;4999140;28;20023;-62
2023/03/11 00:37:08;;;;;;;8.70;2.05;;;;;;;2.38;79.42;100170.78;4999769;28;20042;-63
2023/03/11 00:39:34;;;;;;;12.65;2.00;;;;;;;2.38;80.34;100190.31;4988855;28;20057;-62
2023/03/11 00:41:59;;;;;;;7.70;2.13;;;;;;;2.39;79.80;100179.28;4973857;28;20121;-63
2023/03/11 00:44:25;;;;;;;14.50;2.78;;;;;;;2.35;79.95;100188.56;4974729;28;20026;-62
2023/03/11 00:46:50;;;;;;;11.25;2.33;;;;;;;2.42;78.79;100181.88;4974608;28;20045;-63
2023/03/11 00:49:16;;;;;;;13.55;2.20;;;;;;;2.42;78.68;100181.88;4965652;28;20134;-62
2023/03/11 00:51:43;;;;;;;11.38;2.55;;;;;;;2.42;79.29;100190.41;4973503;28;20896;-62
2023/03/11 00:54:08;;;;;;;10.10;1.90;;;;;;;2.41;80.04;100190.34;4988569;28;20026;-63
2023/03/11 00:56:34;;;;;;;9.95;2.42;;;;;;;2.41;79.79;100195.47;4976707;28;20034;-62
2023/03/11 00:58:59;;;;;;;7.20;1.92;;;;;;;2.37;80.36;100209.00;4973746;28;20120;-63
2023/03/11 01:01:25;;;;;;;11.65;2.50;;;;;;;2.37;80.60;100221.75;4972010;28;20034;-62
2023/03/11 01:03:50;;;;;;;9.13;2.35;;;;;;;2.31;81.51;100225.06;4976601;28;20108;-63
2023/03/11 01:06:15;;;;;;;7.88;2.60;;;;;;;2.26;81.99;100238.56;4974984;28;20034;-62
2023/03/11 01:08:41;;;;;;;11.02;2.70;;;;;;;2.21;83.43;100230.00;4991013;28;20095;-63
2023/03/11 01:11:07;;;;;;;11.80;2.22;;;;;;;2.17;83.44;100234.19;4969778;28;20037;-62
2023/03/11 01:13:33;;;;;;;8.98;2.58;;;;;;;2.13;83.64;100237.50;4991114;28;20064;-63
2023/03/11 01:15:59;;;;;;;14.68;2.70;;;;;;;2.13;84.19;100242.59;4980386;28;20034;-63
2023/03/11 01:18:25;;;;;;;12.93;2.63;;;;;;;2.11;83.81;100234.06;4972981;28;20042;-63
2023/03/11 01:20:51;;;;;;;12.43;2.53;;;;;;;2.09;84.78;100238.31;4972866;28;20035;-62
2023/03/11 01:23:18;;;;;;;9.32;2.55;;;;;;;2.09;83.71;100232.34;4985195;28;20029;-63
2023/03/11 01:25:43;;;;;;;16.77;2.95;;;;;;;2.11;83.82;100240.84;4964497;28;20356;-62
2023/03/11 01:28:09;;;;;;;10.23;2.40;;;;;;;2.14;82.45;100228.16;4997951;28;20041;-63
2023/03/11 01:30:39;;;;;;;11.07;2.80;;;;;;;2.15;82.14;100233.31;4991867;28;20046;-63
2023/03/11 01:33:06;;;;;;;8.02;2.33;;;;;;;2.19;81.14;100239.31;4972703;28;20216;-62
2023/03/11 01:35:32;;;;;;;6.22;2.20;;;;;;;2.23;80.28;100233.41;4974211;28;20120;-63
2023/03/11 01:37:58;;;;;;;15.32;2.50;;;;;;;2.24;80.18;100230.03;4975498;28;20034;-63
2023/03/11 01:40:36;;;;;;;7.75;1.92;;;;;;;2.24;81.16;100248.75;4971903;28;20061;-62
2023/03/11 01:43:04;;;;;;;9.30;2.40;;;;;;;2.26;80.53;100247.09;4976214;28;20116;-63
2023/03/11 01:45:32;;;;;;;11.80;2.58;;;;;;;2.27;79.59;100243.72;4970998;28;20041;-62
2023/03/11 01:47:58;;;;;;;10.82;2.75;;;;;;;2.28;79.29;100230.09;4977182;28;20046;-63
2023/03/11 01:50:26;;;;;;;7.47;2.40;;;;;;;2.26;80.20;100238.56;4970397;28;20450;-62
2023/03/11 01:52:52;;;;;;;8.93;2.30;;;;;;;2.27;79.70;100232.66;4978456;28;20130;-63
2023/03/11 01:55:18;;;;;;;7.85;1.77;;;;;;;2.24;80.02;100241.09;4981915;28;20038;-63
2023/03/11 01:57:46;;;;;;;9.57;2.85;;;;;;;2.24;79.66;100237.69;4987248;28;20042;-62
2023/03/11 02:00:16;;;;;;;10.02;2.28;;;;;;;2.25;79.48;100231.78;4978684;28;21003;-63
2023/03/11 02:02:50;;;;;;;16.52;2.33;;;;;;;2.22;79.92;100254.66;4994755;28;20080;-63
2023/03/11 02:05:17;;;;;;;11.13;2.22;;;;;;;2.22;80.09;100244.47;4980465;28;20030;-62
2023/03/11 02:07:43;;;;;;;12.27;2.78;;;;;;;2.20;79.87;100246.13;4994952;28;20034;-63
2023/03/11 02:10:11;;;;;;;8.73;1.90;;;;;;;2.19;79.76;100246.97;4980508;28;20782;-63
2023/03/11 02:12:37;;;;;;;7.05;1.70;;;;;;;2.15;80.77;100269.00;4977060;28;20046;-62
2023/03/11 02:15:04;;;;;;;8.23;1.65;;;;;;;2.11;80.39;100259.56;4977936;28;20170;-62
2023/03/11 02:17:31;;;;;;;12.85;1.85;;;;;;;2.09;80.76;100261.25;4985554;28;20121;-63
2023/03/11 02:20:04;;;;;;;12.07;1.73;;;;;;;2.07;79.96;100255.28;4984597;28;20044;-63
2023/03/11 02:22:32;;;;;;;12.32;1.85;;;;;;;2.02;79.86;100264.50;4987804;28;20137;-62
2023/03/11 02:25:08;;;;;;;10.80;1.85;;;;;;;2.01;80.35;100269.59;4983870;28;20046;-62
2023/03/11 02:27:37;;;;;;;5.22;1.73;;;;;;;1.98;79.95;100260.19;4976975;28;20045;-63
2023/03/11 02:30:03;;;;;;;8.95;1.92;;;;;;;2.00;79.64;100260.22;4976234;28;20042;-63
2023/03/11 02:32:29;;;;;;;7.85;1.70;;;;;;;1.98;78.54;100255.09;4982806;28;20041;-63
2023/03/11 02:34:55;;;;;;;14.75;1.85;;;;;;;1.99;78.41;100241.50;4977019;28;20027;-62
2023/03/11 02:37:20;;;;;;;11.57;2.00;;;;;;;1.99;79.85;100272.09;4977037;28;20396;-63
2023/03/11 02:39:49;;;;;;;11.23;2.25;;;;;;;1.98;78.67;100254.25;4986055;28;20141;-62
2023/03/11 02:42:18;;;;;;;7.72;1.50;;;;;;;1.98;78.57;100251.69;4978602;28;20061;-63
2023/03/11 02:44:47;;;;;;;12.27;2.83;;;;;;;1.99;77.81;100251.72;4973720;28;20027;-63
2023/03/11 02:47:14;;;;;;;6.20;1.80;;;;;;;1.98;77.37;100246.59;4977146;28;20041;-63
2023/03/11 02:49:39;;;;;;;11.45;2.00;;;;;;;1.96;77.66;100261.84;4980969;28;20042;-63
2023/03/11 02:52:05;;;;;;;5.88;1.70;;;;;;;1.94;77.55;100262.66;4972551;28;20460;-63
2023/03/11 02:54:31;;;;;;;8.23;1.85;;;;;;;1.92;77.70;100261.78;4981061;28;20046;-62
2023/03/11 02:56:56;;;;;;;6.38;1.60;;;;;;;1.90;77.68;100271.91;4994350;28;20523;-62
2023/03/11 02:59:22;;;;;;;9.57;2.67;;;;;;;1.89;77.82;100275.31;4975590;28;20045;-62
2023/03/11 03:01:47;;;;;;;11.77;1.95;;;;;;;1.88;76.88;100265.09;4990894;28;20629;-62
2023/03/11 03:04:12;;;;;;;5.10;2.38;;;;;;;1.85;77.12;100264.22;4981535;28;20042;-62
2023/03/11 03:06:37;;;;;;;12.70;2.08;;;;;;;1.83;77.44;100265.84;4990965;28;20046;-62
2023/03/11 03:09:03;;;;;;;6.60;1.65;;;;;;;1.81;76.34;100248.81;4982522;28;20534;-62
2023/03/11 03:11:28;;;;;;;4.93;1.80;;;;;;;1.80;76.17;100257.31;4981409;28;20034;-62
2023/03/11 03:13:54;;;;;;;9.55;1.77;;;;;;;1.79;76.21;100255.59;5005486;28;20034;-63
2023/03/11 03:16:19;;;;;;;9.93;2.95;;;;;;;1.81;75.40;100248.81;4982700;28;20073;-62
2023/03/11 03:18:45;;;;;;;10.75;2.30;;;;;;;1.76;76.09;100263.19;4977502;28;20035;-62
2023/03/11 03:21:10;;;;;;;10.98;1.70;;;;;;;1.72;76.64;100269.91;4980959;28;20065;-62
2023/03/11 03:23:36;;;;;;;7.53;1.77;;;;;;;1.65;76.39;100267.22;4987784;28;20035;-62
2023/03/11 03:26:03;;;;;;;5.03;1.77;;;;;;;1.58;76.98;100278.09;4979096;28;20467;-62
2023/03/11 03:28:29;;;;;;;12.00;2.72;;;;;;;1.52;76.82;100275.44;4976659;28;20078;-62
2023/03/11 03:30:55;;;;;;;6.68;1.23;;;;;;;1.47;76.59;100267.72;4983049;28;20639;-61
2023/03/11 03:33:20;;;;;;;12.10;2.20;;;;;;;1.44;76.08;100271.88;4979593;28;20034;-61
2023/03/11 03:35:46;;;;;;;9.35;1.70;;;;;;;1.39;77.06;100286.22;4983275;28;20605;-62
2023/03/11 03:38:11;;;;;;;5.38;1.77;;;;;;;1.36;76.63;100288.69;4970092;28;20027;-62
2023/03/11 03:40:37;;;;;;;8.20;2.88;;;;;;;1.33;77.49;100296.28;5000687;28;20530;-62
2023/03/11 03:43:03;;;;;;;8.32;2.35;;;;;;;1.22;78.56;100324.91;4991740;28;20053;-62
2023/03/11 03:45:28;;;;;;;6.65;1.50;;;;;;;1.24;77.12;100307.97;4991186;28;20628;-62
2023/03/11 03:47:54;;;;;;;7.75;2.00;;;;;;;1.22;77.36;100307.06;4988220;28;20514;-62
2023/03/11 03:50:19;;;;;;;15.90;2.55;;;;;;;1.19;76.66;100301.91;4978808;28;20069;-62
2023/03/11 03:52:45;;;;;;;3.05;2.08;;;;;;;1.17;77.42;100308.69;4974026;28;20062;-62
2023/03/11 03:55:11;;;;;;;10.10;1.80;;;;;;;1.15;77.32;100307.75;4977132;28;20038;-62
2023/03/11 03:57:36;;;;;;;16.00;2.00;;;;;;;1.05;77.44;100316.03;4973992;28;20042;-62
2023/03/11 04:00:03;;;;;;;4.63;1.60;;;;;;;1.01;77.88;100321.00;4976171;28;20450;-62
2023/03/11 04:02:30;;;;;;;7.50;2.30;;;;;;;0.93;78.58;100340.34;4976916;28;20472;-62
2023/03/11 04:04:56;;;;;;;8.30;1.98;;;;;;;0.86;79.17;100343.56;4976335;28;20043;-61
2023/03/11 04:07:21;;;;;;;5.95;1.70;;;;;;;0.82;79.25;100340.09;4981256;28;20034;-62
2023/03/11 04:09:46;;;;;;;10.25;2.00;;;;;;;0.78;79.11;100339.97;4981322;28;20030;-62
2023/03/11 04:12:13;;;;;;;7.28;2.03;;;;;;;0.74;79.07;100342.44;4980508;28;20042;-62
2023/03/11 04:14:39;;;;;;;9.30;1.75;;;;;;;0.74;78.82;100347.53;5003168;28;20029;-62
2023/03/11 04:17:05;;;;;;;7.95;1.73;;;;;;;0.72;78.76;100348.31;5000344;28;20076;-62
2023/03/11 04:19:31;;;;;;;10.07;2.88;;;;;;;0.69;78.88;100358.41;4974048;28;20278;-62
2023/03/11 04:21:56;;;;;;;3.78;1.52;;;;;;;0.68;79.57;100365.19;4969023;28;20143;-63
2023/03/11 04:24:22;;;;;;;6.43;1.65;;;;;;;0.66;79.45;100364.28;4967794;28;20050;-63
2023/03/11 04:26:47;;;;;;;5.22;1.80;;;;;;;0.61;79.87;100370.97;4966770;28;20137;-62
2023/03/11 04:29:13;;;;;;;7.50;1.73;;;;;;;0.58;80.18;100375.09;4982321;28;20840;-62
2023/03/11 04:31:38;;;;;;;17.67;3.17;;;;;;;0.55;80.56;100377.56;4975639;28;20081;-61
2023/03/11 04:34:03;;;;;;;7.90;1.75;;;;;;;0.56;79.95;100381.81;4974102;28;20042;-63
2023/03/11 04:36:29;;;;;;;9.43;2.10;;;;;;;0.51;80.82;100380.84;4967719;28;20046;-63
2023/03/11 04:38:55;;;;;;;7.22;1.73;;;;;;;0.56;80.23;100376.72;4972957;28;20074;-63
2023/03/11 04:41:21;;;;;;;7.13;1.80;;;;;;;0.57;80.35;100381.88;4972580;28;20034;-61
2023/03/11 04:43:46;;;;;;;4.93;1.50;;;;;;;0.55;80.86;100390.28;4976074;28;20077;-63
2023/03/11 04:46:12;;;;;;;7.75;1.73;;;;;;;0.61;80.55;100380.28;4974912;28;20520;-63
2023/03/11 04:48:37;;;;;;;10.23;2.80;;;;;;;0.64;79.92;100380.34;4962945;28;20684;-63
2023/03/11 04:51:03;;;;;;;15.95;2.20;;;;;;;0.67;79.43;100371.13;4984343;28;20105;-62
2023/03/11 04:53:28;;;;;;;12.48;1.98;;;;;;;0.67;79.68;100377.88;4973530;28;20033;-62
2023/03/11 04:55:54;;;;;;;6.07;2.17;;;;;;;0.64;79.54;100376.13;4965019;28;20725;-62
2023/03/11 04:58:19;;;;;;;7.20;2.17;;;;;;;0.63;79.87;100378.63;4959196;28;20042;-62
2023/03/11 05:00:45;;;;;;;12.57;3.13;;;;;;;0.56;80.50;100382.69;4970031;28;20042;-62
2023/03/11 05:03:10;;;;;;;6.18;1.92;;;;;;;0.54;80.49;100388.56;4959020;28;20054;-62
2023/03/11 05:05:36;;;;;;;11.68;2.67;;;;;;;0.47;81.53;100391.78;4969917;28;20033;-62
2023/03/11 05:08:01;;;;;;;6.63;1.73;;;;;;;0.44;80.93;100387.44;4968202;28;20476;-62
2023/03/11 05:10:27;;;;;;;11.95;3.38;;;;;;;0.43;81.62;100389.97;4966610;28;20038;-62
2023/03/11 05:12:52;;;;;;;7.45;2.00;;;;;;;0.39;81.27;100394.09;4980100;28;20109;-62
2023/03/11 05:15:18;;;;;;;10.27;2.40;;;;;;;0.34;82.03;100394.81;4986446;28;20064;-62
2023/03/11 05:17:44;;;;;;;11.38;2.72;;;;;;;0.29;82.58;100401.47;4994347;28;20149;-62
2023/03/11 05:20:10;;;;;;;14.57;3.72;;;;;;;0.31;82.38;100399.81;4968944;28;22930;-62
2023/03/11 05:22:36;;;;;;;10.00;2.40;;;;;;;0.32;82.25;100401.53;4975331;28;20049;-62
2023/03/11 05:25:01;;;;;;;12.85;2.85;;;;;;;0.30;82.40;100415.88;4971328;28;20473;-62
2023/03/11 05:27:27;;;;;;;6.63;2.22;;;;;;;0.30;82.99;100410.78;4970803;28;20038;-63
2023/03/11 05:29:52;;;;;;;11.55;3.28;;;;;;;0.29;82.92;100414.16;4976749;28;20045;-62
2023/03/11 05:32:18;;;;;;;7.35;2.72;;;;;;;0.31;83.19;100409.97;4979560;28;20459;-62
2023/03/11 05:34:44;;;;;;;5.65;2.00;;;;;;;0.36;83.21;100423.66;4982410;28;20133;-62
2023/03/11 05:37:09;;;;;;;8.18;2.10;;;;;;;0.40;82.93;100422.94;4974582;28;20775;-62
2023/03/11 05:39:36;;;;;;;9.10;2.58;;;;;;;0.44;82.40;100424.75;4969491;28;20058;-63
2023/03/11 05:42:02;;;;;;;11.02;2.85;;;;;;;0.47;82.37;100428.22;4968906;28;20039;-62
2023/03/11 05:44:28;;;;;;;8.20;2.38;;;;;;;0.50;82.31;100430.84;4971758;28;20043;-62
2023/03/11 05:46:53;;;;;;;5.47;2.25;;;;;;;0.52;82.16;100424.13;4974362;28;20120;-63
2023/03/11 05:49:20;;;;;;;12.35;3.53;;;;;;;0.58;81.21;100425.97;4970359;28;20050;-62
2023/03/11 05:51:46;;;;;;;11.05;3.00;;;;;;;0.62;80.98;100427.75;4973273;28;20053;-62
2023/03/11 05:54:13;;;;;;;12.43;2.72;;;;;;;0.65;81.24;100427.81;4980064;28;20042;-62
2023/03/11 05:56:40;;;;;;;10.32;2.20;;;;;;;0.66;80.08;100429.56;4979223;28;20050;-62
2023/03/11 05:59:07;;;;;;;15.25;3.22;;;;;;;0.65;80.42;100425.28;4975902;28;20038;-62
2023/03/11 06:01:32;;;;;;;11.77;2.35;;;;;;;0.62;81.46;100435.38;4971020;28;20043;-62
2023/03/11 06:03:59;;;;;;;6.45;3.22;;;;;;;0.64;81.18;100438.84;4975333;28;20057;-62
2023/03/11 06:06:24;;;;;;;7.53;2.20;;;;;;;0.66;81.10;100443.13;4972599;28;20077;-62
2023/03/11 06:08:50;;;;;;;10.05;2.60;;;;;;;0.71;80.38;100431.38;4984891;28;20168;-62
2023/03/11 06:11:16;;;;;;;8.82;2.67;;;;;;;0.74;80.21;100433.16;4989841;28;20030;-62
2023/03/11 06:13:41;;;;;;;15.60;3.20;;;;;;;0.72;80.77;100437.34;4980325;28;20049;-62
2023/03/11 06:16:07;;;;;;;8.00;2.25;;;;;;;0.71;80.53;100436.47;4984800;28;20043;-63
2023/03/11 06:18:32;;;;;;;18.08;3.72;;;;;;;0.69;81.00;100438.13;4976822;28;20057;-62
2023/03/11 06:20:59;;;;;;;11.45;2.53;;;;;;;0.69;81.00;100444.91;4987959;28;20529;-63
2023/03/11 06:23:25;;;;;;;8.93;2.90;;;;;;;0.71;80.96;100438.16;4970631;28;20026;-62
2023/03/11 06:26:03;;;;;;;9.35;2.33;;;;;;;0.75;80.47;100439.97;4974154;28;20050;-62
2023/03/11 06:28:28;;;;;;;7.40;2.53;;;;;;;0.81;80.87;100452.84;4974542;28;20042;-62
2023/03/11 06:31:00;;;;;;;9.20;2.30;;;;;;;0.86;80.27;100446.19;4974595;28;20034;-62
2023/03/11 06:33:25;;;;;;;8.90;2.97;;;;;;;0.93;80.50;100455.69;4972738;28;20045;-63
2023/03/11 06:36:01;;;;;;;8.77;2.83;;;;;;;1.02;80.20;100457.59;4972041;28;23071;-63
2023/03/11 06:38:27;;;;;;;7.93;2.92;;;;;;;1.12;80.06;100464.66;4976560;28;20082;-62
2023/03/11 06:40:52;;;;;;;12.05;3.05;;;;;;;1.23;79.23;100460.69;4970343;28;20622;-63
2023/03/11 06:43:18;;;;;;;9.18;2.55;;;;;;;1.36;78.98;100456.75;4973022;28;20092;-63
2023/03/11 06:45:44;;;;;;;10.82;2.60;;;;;;;1.49;76.94;100441.78;4971655;28;20842;-62
2023/03/11 06:48:10;;;;;;;6.95;2.50;;;;;;;1.63;76.36;100431.88;4973321;28;20040;-62
2023/03/11 06:50:35;;;;;;;8.77;2.85;;;;;;;1.73;76.16;100436.34;4979549;28;20031;-63
2023/03/11 06:53:01;;;;;;;8.13;2.78;;;;;;;1.88;76.29;100440.91;4971098;28;20022;-62
2023/03/11 06:55:27;;;;;;;10.65;2.72;;;;;;;2.01;76.87;100459.06;4969866;28;20100;-62
2023/03/11 06:57:52;;;;;;;14.70;4.05;;;;;;;2.12;75.40;100437.19;4978357;28;20823;-62
2023/03/11 07:00:18;;;;;;;9.18;2.97;;;;;;;2.16;74.49;100433.84;4966099;28;20100;-62
2023/03/11 07:02:43;;;;;;;15.57;4.55;;;;;;;2.15;74.13;100434.69;4983616;28;20030;-62
2023/03/11 07:05:09;;;;;;;9.80;2.53;;;;;;;2.16;74.71;100454.25;4972671;28;20133;-62
2023/03/11 07:07:34;;;;;;;12.60;3.55;;;;;;;2.16;75.10;100468.72;4996569;28;20080;-62
2023/03/11 07:10:00;;;;;;;10.30;3.65;;;;;;;2.11;74.10;100472.84;4986797;28;20144;-62
2023/03/11 07:12:25;;;;;;;6.68;2.42;;;;;;;2.11;75.52;100489.00;4976181;28;20042;-62
2023/03/11 07:14:58;;;;;;;12.32;3.25;;;;;;;2.10;74.88;100482.16;4979853;28;20019;-62
2023/03/11 07:17:24;;;;;;;11.27;3.60;;;;;;;2.17;75.25;100501.88;4988682;28;20045;-63
2023/03/11 07:19:50;;;;;;;11.13;2.60;;;;;;;2.21;75.37;100490.06;4971259;28;20504;-64
2023/03/11 07:22:15;;;;;;;12.73;2.72;;;;;;;2.23;74.85;100493.47;4978029;28;20050;-62
2023/03/11 07:24:44;;;;;;;15.25;2.97;;;;;;;2.27;75.02;100510.59;4971142;28;20035;-63
2023/03/11 07:27:09;;;;;;;7.10;2.88;;;;;;;2.24;74.33;100500.31;4972175;28;20054;-63
2023/03/11 07:29:35;;;;;;;7.20;3.00;;;;;;;2.28;74.30;100512.31;4986908;28;20039;-62
2023/03/11 07:32:00;;;;;;;9.43;2.35;;;;;;;2.35;74.32;100512.44;4979115;28;20030;-64
2023/03/11 07:34:25;;;;;;;8.88;3.53;;;;;;;2.37;73.46;100502.28;4974391;28;20077;-63
2023/03/11 07:36:51;;;;;;;8.95;2.63;;;;;;;2.36;73.66;100526.94;4971578;28;20096;-63
2023/03/11 07:39:17;;;;;;;8.60;2.90;;;;;;;2.25;73.70;100519.91;4974353;28;20038;-64
2023/03/11 07:41:43;;;;;;;8.45;2.80;;;;;;;2.20;74.14;100529.13;4986013;28;20034;-63
2023/03/11 07:44:11;;;;;;;11.23;3.60;;;;;;;2.10;74.75;100534.88;4975022;28;20038;-62
2023/03/11 07:46:37;;;;;;;13.45;3.28;;;;;;;2.09;75.47;100556.94;4975329;28;20519;-62
2023/03/11 07:49:03;;;;;;;18.13;5.13;;;;;;;2.16;74.60;100548.56;4984795;28;20046;-62
2023/03/11 07:51:31;;;;;;;10.95;3.30;;;;;;;2.26;74.32;100549.66;4988612;28;20499;-63
2023/03/11 07:53:58;;;;;;;17.05;3.50;;;;;;;2.31;74.63;100554.00;4977357;28;20514;-63
2023/03/11 07:56:26;;;;;;;10.95;2.83;;;;;;;2.36;74.22;100560.09;4977144;28;20037;-63
2023/03/11 07:58:52;;;;;;;5.78;2.42;;;;;;;2.36;74.87;100574.53;4976060;28;20038;-64
2023/03/11 08:01:20;;;;;;;5.75;3.05;;;;;;;2.33;74.42;100557.47;4987644;28;20038;-64
2023/03/11 08:03:48;;;;;;;9.82;2.88;;;;;;;2.30;74.04;100557.41;4997594;28;20045;-64
2023/03/11 08:06:19;;;;;;;6.75;2.65;;;;;;;2.35;74.62;100565.16;4998544;28;20579;-64
2023/03/11 08:08:45;;;;;;;8.85;2.83;;;;;;;2.38;74.58;100576.28;4992812;28;20037;-63
2023/03/11 08:11:12;;;;;;;10.63;2.67;;;;;;;2.46;74.77;100583.25;4985518;28;20057;-63
2023/03/11 08:13:39;;;;;;;6.60;3.10;;;;;;;2.49;73.91;100575.66;4986717;28;20045;-62
2023/03/11 08:16:06;;;;;;;9.73;3.20;;;;;;;2.49;73.98;100566.28;4986183;28;20429;-62
2023/03/11 08:18:32;;;;;;;13.45;3.83;;;;;;;2.55;73.70;100561.31;4987735;28;20737;-63
2023/03/11 08:20:58;;;;;;;11.38;3.58;;;;;;;2.54;73.45;100559.59;4990888;28;20038;-62
2023/03/11 08:23:24;;;;;;;8.05;2.72;;;;;;;2.60;73.08;100549.53;4996880;28;20084;-62
2023/03/11 08:25:49;;;;;;;17.20;5.18;;;;;;;2.67;73.26;100568.34;4993045;28;21663;-63
2023/03/11 08:28:15;;;;;;;10.88;3.05;;;;;;;2.73;73.85;100568.47;4985018;28;20039;-63
2023/03/11 08:30:40;;;;;;;9.45;2.97;;;;;;;2.77;71.90;100543.06;4993771;28;20617;-63
2023/03/11 08:33:06;;;;;;;7.70;3.05;;;;;;;2.80;73.00;100545.66;4993490;28;20581;-63
2023/03/11 08:35:31;;;;;;;13.00;2.72;;;;;;;2.85;72.96;100563.59;5010262;28;20055;-63
2023/03/11 08:37:56;;;;;;;6.90;3.00;;;;;;;2.97;72.86;100569.81;4981569;28;20034;-63
2023/03/11 08:40:22;;;;;;;7.13;2.78;;;;;;;3.06;70.39;100532.50;4988762;28;20031;-63
2023/03/11 08:42:48;;;;;;;9.18;2.92;;;;;;;3.13;70.62;100521.59;4985961;28;20087;-63
2023/03/11 08:45:13;;;;;;;10.57;2.78;;;;;;;3.24;71.43;100550.72;5005651;28;20092;-63
2023/03/11 08:47:39;;;;;;;8.90;2.97;;;;;;;3.34;71.13;100543.25;4993664;28;20042;-63
2023/03/11 08:50:08;;;;;;;9.55;2.65;;;;;;;3.49;71.91;100534.97;4997697;28;20689;-63
2023/03/11 08:52:34;;;;;;;8.32;2.97;;;;;;;3.69;71.27;100530.19;4997310;28;20053;-63
2023/03/11 08:54:59;;;;;;;4.38;2.28;;;;;;;3.85;68.31;100473.34;4998070;28;20133;-62
2023/03/11 08:57:25;;;;;;;10.02;2.25;;;;;;;4.00;66.68;100428.34;4990553;28;20124;-62
2023/03/11 08:59:50;;;;;;;11.80;2.67;;;;;;;4.17;66.98;100426.03;4990682;28;20034;-63
2023/03/11 09:02:16;;;;;;;7.57;2.63;;;;;;;4.08;65.71;100420.78;5002333;28;20165;-62
2023/03/11 09:04:41;;;;;;;6.97;2.80;;;;;;;4.07;66.53;100437.84;4995292;28;20137;-63
2023/03/11 09:07:06;;;;;;;12.60;2.72;;;;;;;3.94;66.20;100453.00;5002270;28;20065;-63
2023/03/11 09:09:32;;;;;;;11.27;3.42;;;;;;;3.88;66.50;100458.03;4992373;28;20038;-62
2023/03/11 09:11:57;;;;;;;12.60;4.00;;;;;;;3.86;67.21;100472.47;4995928;28;20037;-62
2023/03/11 09:14:22;;;;;;;7.72;2.75;;;;;;;3.99;67.15;100474.38;4997904;28;20788;-63
2023/03/11 09:16:48;;;;;;;8.73;2.80;;;;;;;4.17;65.60;100437.94;4993538;28;20129;-62
2023/03/11 09:19:13;;;;;;;6.90;2.10;;;;;;;4.38;63.07;100379.34;5002587;28;20128;-62
2023/03/11 09:21:38;;;;;;;5.45;1.83;;;;;;;4.41;57.06;100272.78;5000882;28;20283;-62
2023/03/11 09:24:04;;;;;;;8.20;1.85;;;;;;;4.49;56.99;100290.75;4997239;28;20442;-62
2023/03/11 09:26:30;;;;;;;7.25;1.90;;;;;;;4.49;58.71;100324.00;5001013;28;20034;-61
2023/03/11 09:28:56;;;;;;;8.50;2.00;;;;;;;4.41;58.38;100312.84;5006891;28;20038;-62
2023/03/11 09:31:22;;;;;;;7.50;1.52;;;;;;;4.41;55.19;100277.91;5000190;28;20042;-63
2023/03/11 09:33:48;;;;;;;8.95;1.90;;;;;;;4.42;56.95;100314.56;4992461;28;20044;-63
2023/03/11 09:36:16;;;;;;;4.20;1.70;;;;;;;4.53;57.62;100318.09;4988024;28;20044;-62
2023/03/11 09:38:43;;;;;;;7.95;2.40;;;;;;;4.61;58.06;100345.47;4989238;28;20030;-63
2023/03/11 09:41:17;;;;;;;6.00;2.17;;;;;;;4.54;58.65;100343.69;4985125;28;20598;-63
2023/03/11 09:43:51;;;;;;;7.85;2.20;;;;;;;4.55;58.50;100342.84;4990824;28;20053;-62
2023/03/11 09:46:16;;;;;;;7.72;2.30;;;;;;;4.54;58.36;100355.59;4992796;28;20049;-63
2023/03/11 09:48:49;;;;;;;10.45;2.65;;;;;;;4.70;57.65;100338.69;4992462;28;20046;-64
2023/03/11 09:51:21;;;;;;;3.97;1.98;;;;;;;4.80;55.16;100302.94;4995394;28;20034;-63
2023/03/11 09:53:52;;;;;;;6.43;1.55;;;;;;;5.05;53.55;100296.28;4990181;28;20026;-63
2023/03/11 09:56:21;;;;;;;3.67;1.38;;;;;;;5.47;53.12;100280.28;4991460;28;20538;-63
2023/03/11 09:58:50;;;;;;;4.35;1.63;;;;;;;5.88;53.53;100286.41;4990730;28;20659;-63
2023/03/11 10:01:17;;;;;;;5.05;1.73;;;;;;;6.17;52.70;100278.78;4985525;28;20038;-63
2023/03/11 10:03:44;;;;;;;2.25;1.20;;;;;;;6.35;50.23;100251.41;4998372;28;20100;-63
2023/03/11 10:06:14;;;;;;;8.10;1.95;;;;;;;6.06;49.81;100254.81;4989250;28;20121;-62
2023/03/11 10:09:01;;;;;;;4.82;1.50;;;;;;;6.05;49.98;100273.63;4998312;28;20479;-63
2023/03/11 10:11:50;;;;;;;8.40;1.50;;;;;;;5.90;46.08;100258.22;5006114;28;20033;-63
2023/03/11 10:14:27;;;;;;;2.22;1.23;;;;;;;6.00;45.46;100258.22;4989698;28;20074;-63
2023/03/11 10:17:17;;;;;;;4.82;1.30;;;;;;;5.83;46.91;100297.50;4989652;28;20154;-63
2023/03/11 10:20:14;;;;;;;2.85;1.10;;;;;;;5.71;46.88;100303.44;4998342;28;20124;-63
2023/03/11 10:22:46;;;;;;;3.10;1.52;;;;;;;5.26;48.04;100326.28;5000647;28;20034;-63
2023/03/11 10:25:25;;;;;;;5.05;1.10;;;;;;;5.37;48.31;100327.22;4997738;28;20049;-63
2023/03/11 10:27:56;;;;;;;5.45;1.40;;;;;;;5.38;47.40;100319.53;4993835;28;20664;-63
2023/03/11 10:30:29;;;;;;;3.90;1.05;;;;;;;5.31;47.30;100333.16;5008359;28;20201;-63
2023/03/11 10:33:23;;;;;;;5.28;1.15;;;;;;;5.54;46.25;100310.22;4994293;28;20042;-63
2023/03/11 10:35:54;;;;;;;5.55;0.95;;;;;;;5.55;46.78;100330.72;4988973;28;20026;-64
2023/03/11 10:38:24;;;;;;;4.35;1.10;;;;;;;5.58;46.08;100320.47;4991885;28;20026;-63
2023/03/11 10:40:54;;;;;;;5.55;1.10;;;;;;;5.67;45.45;100312.84;4993481;28;20529;-63
2023/03/11 10:43:40;;;;;;;7.20;1.33;;;;;;;5.72;51.02;100421.38;5000539;28;20046;-63
2023/03/11 10:46:15;;;;;;;4.30;1.63;;;;;;;5.87;50.27;100412.94;4995524;28;20035;-64
2023/03/11 10:48:40;;;;;;;5.88;1.30;;;;;;;6.17;52.11;100450.72;4994962;28;20048;-64
2023/03/11 10:51:21;;;;;;;4.82;1.40;;;;;;;6.55;50.36;100414.91;4996521;28;20035;-64
2023/03/11 10:53:57;;;;;;;5.57;2.05;;;;;;;6.50;47.73;100360.94;4991420;28;20053;-65
2023/03/11 10:56:27;;;;;;;4.43;1.48;;;;;;;6.73;48.88;100389.25;4999946;28;20038;-64
2023/03/11 10:58:53;;;;;;;6.43;1.80;;;;;;;6.80;47.99;100365.25;4988803;28;20042;-64
2023/03/11 11:01:20;;;;;;;3.75;1.58;;;;;;;7.02;48.93;100374.69;4987798;28;20132;-63
2023/03/11 11:03:48;;;;;;;9.05;1.30;;;;;;;7.12;46.15;100319.84;4986982;28;20100;-63
2023/03/11 11:06:34;;;;;;;7.38;1.85;;;;;;;7.37;47.52;100346.41;4994164;28;20472;-63
2023/03/11 11:09:12;;;;;;;3.42;1.40;;;;;;;7.46;44.08;100305.25;4992414;28;20663;-63
2023/03/11 11:11:38;;;;;;;8.52;1.25;;;;;;;7.40;43.38;100289.84;4989449;28;20061;-63
2023/03/11 11:14:04;;;;;;;5.88;1.50;;;;;;;7.30;42.92;100295.84;4997086;28;20445;-63
2023/03/11 11:16:33;;;;;;;4.82;1.30;;;;;;;7.29;44.62;100346.44;4995787;28;20087;-63
2023/03/11 11:19:13;;;;;;;2.47;0.98;;;;;;;7.18;44.12;100321.59;4993155;28;20439;-63
2023/03/11 11:21:46;;;;;;;9.75;1.83;;;;;;;7.25;44.00;100318.16;4996148;28;20041;-63
2023/03/11 11:24:26;;;;;;;3.13;1.20;;;;;;;7.25;43.47;100315.56;4997057;28;20034;-64
2023/03/11 11:27:24;;;;;;;3.90;1.45;;;;;;;6.94;43.69;100330.19;4990803;28;20030;-63
2023/03/11 11:30:15;;;;;;;5.43;1.27;;;;;;;6.75;43.77;100334.44;4982753;28;20492;-63